createdAt,value
2022-08-09T00:01:16.609Z,69.37
2022-08-09T00:04:00.406Z,68.35
2022-08-09T00:06:32.474Z,68.87
2022-08-09T00:09:04.036Z,68.91
2022-08-09T00:11:58.441Z,69.60
2022-08-09T00:14:22.074Z,69.00
2022-08-09T00:17:04.316Z,69.83
2022-08-09T00:19:34.071Z,69.21
2022-08-09T00:22:03.487Z,69.24
2022-08-09T00:24:32.596Z,68.95
2022-08-09T00:27:01.457Z,69.46
2022-08-09T00:30:10.290Z,70.76
2022-08-09T00:32:26.793Z,69.08
2022-08-09T00:34:58.613Z,69.81
2022-08-09T00:37:30.187Z,70.48
2022-08-09T00:40:09.206Z,70.85
2022-08-09T00:44:11.856Z,70.52
2022-08-09T00:45:31.162Z,69.99
2022-08-09T00:48:05.607Z,69.35
2022-08-09T00:50:33.525Z,69.59
2022-08-09T00:53:10.445Z,70.52
2022-08-09T00:56:04.193Z,70.74
2022-08-09T00:58:31.660Z,70.05
2022-08-09T01:00:59.312Z,69.43
2022-08-09T01:03:46.797Z,69.21
2022-08-09T01:06:19.115Z,69.77
2022-08-09T01:08:56.103Z,69.69
2022-08-09T01:11:29.512Z,69.15
2022-08-09T01:14:23.647Z,68.73
2022-08-09T01:16:55.604Z,68.25
2022-08-09T01:19:42.716Z,69.13
2022-08-09T01:22:35.413Z,70.66
2022-08-09T01:25:12.593Z,70.88
2022-08-09T01:27:42.023Z,70.64
2022-08-09T01:30:28.520Z,72.58
2022-08-09T01:33:00.321Z,72.94
2022-08-09T01:35:37.914Z,72.54
2022-08-09T01:38:15.849Z,71.97
2022-08-09T01:41:04.984Z,71.33
2022-08-09T01:43:51.693Z,72.48
2022-08-09T01:46:24.566Z,73.26
2022-08-09T01:49:10.835Z,73.25
2022-08-09T01:51:53.056Z,72.28
2022-08-09T01:54:26.192Z,72.87
2022-08-09T01:56:56.775Z,73.81
2022-08-09T01:59:24.570Z,73.82
2022-08-09T02:02:03.148Z,72.74
2022-08-09T02:04:35.632Z,70.73
2022-08-09T02:07:15.557Z,72.33
2022-08-09T02:10:07.801Z,72.72
2022-08-09T02:12:36.015Z,71.50
2022-08-09T02:15:07.636Z,71.75
2022-08-09T02:18:01.498Z,72.37
2022-08-09T02:20:32.913Z,72.66
2022-08-09T02:23:12.177Z,72.71
2022-08-09T02:25:52.755Z,72.38
2022-08-09T02:28:35.430Z,71.91
2022-08-09T02:31:07.681Z,73.93
2022-08-09T02:34:06.543Z,73.59
2022-08-09T02:36:36.178Z,73.26
2022-08-09T02:39:14.620Z,72.76
2022-08-09T02:41:57.944Z,72.14
2022-08-09T02:44:30.024Z,71.86
2022-08-09T02:47:02.380Z,71.59
2022-08-09T02:49:38.857Z,71.95
2022-08-09T02:52:14.717Z,72.52
2022-08-09T02:54:54.734Z,72.85
2022-08-09T02:57:26.916Z,72.48
2022-08-09T03:00:21.526Z,72.36
2022-08-09T03:02:58.613Z,72.87
2022-08-09T03:05:34.340Z,72.36
2022-08-09T03:08:04.874Z,71.99
2022-08-09T03:10:36.226Z,71.51
2022-08-09T03:13:08.586Z,71.14
2022-08-09T03:15:40.390Z,71.02
2022-08-09T03:18:31.122Z,71.18
2022-08-09T03:20:59.659Z,70.94
2022-08-09T03:23:27.156Z,71.75
2022-08-09T03:26:03.477Z,71.57
2022-08-09T03:28:34.059Z,71.78
2022-08-09T03:31:10.226Z,72.44
2022-08-09T03:33:52.970Z,72.49
2022-08-09T03:36:27.764Z,71.82
2022-08-09T03:38:57.201Z,71.46
2022-08-09T03:41:44.805Z,71.64
2022-08-09T03:44:13.345Z,71.61
2022-08-09T03:46:44.546Z,71.61
2022-08-09T03:49:17.499Z,72.04
2022-08-09T03:51:58.261Z,72.36
2022-08-09T03:54:31.293Z,72.27
2022-08-09T03:57:04.220Z,71.82
2022-08-09T03:59:53.568Z,72.00
2022-08-09T04:02:26.574Z,71.78
2022-08-09T04:04:58.649Z,71.35
2022-08-09T04:07:33.790Z,72.54
2022-08-09T04:10:20.387Z,73.21
2022-08-09T04:12:49.754Z,72.75
2022-08-09T04:15:42.611Z,72.70
2022-08-09T04:18:08.032Z,72.25
2022-08-09T04:20:36.718Z,72.83
2022-08-09T04:23:09.915Z,72.29
2022-08-09T04:25:38.583Z,72.43
2022-08-09T04:28:06.518Z,72.94
2022-08-09T04:30:33.895Z,72.95
2022-08-09T04:33:02.083Z,72.88
2022-08-09T04:35:29.593Z,72.56
2022-08-09T04:38:03.536Z,72.28
2022-08-09T04:40:48.451Z,71.85
2022-08-09T04:43:25.205Z,71.65
2022-08-09T04:45:54.400Z,71.76
2022-08-09T04:48:23.851Z,72.68
2022-08-09T04:51:01.143Z,72.62
2022-08-09T04:53:29.183Z,72.13
2022-08-09T04:55:59.887Z,72.10
2022-08-09T04:58:29.086Z,71.71
2022-08-09T05:01:00.250Z,71.66
2022-08-09T05:03:40.859Z,72.36
2022-08-09T05:06:26.880Z,71.35
2022-08-09T05:09:00.713Z,70.81
2022-08-09T05:11:35.361Z,72.33
2022-08-09T05:14:06.151Z,71.60
2022-08-09T05:16:43.440Z,71.58
2022-08-09T05:19:15.144Z,71.01
2022-08-09T05:21:47.333Z,71.05
2022-08-09T05:24:24.836Z,70.46
2022-08-09T05:26:53.452Z,70.58
2022-08-09T05:29:24.140Z,69.50
2022-08-09T05:32:02.484Z,69.05
2022-08-09T05:34:32.589Z,67.71
2022-08-09T05:37:05.979Z,67.03
2022-08-09T05:39:43.602Z,66.49
2022-08-09T05:42:17.509Z,66.61
2022-08-09T05:44:51.067Z,66.33
2022-08-09T05:47:22.928Z,66.21
2022-08-09T05:50:30.611Z,66.87
2022-08-09T05:52:44.525Z,67.08
2022-08-09T05:55:21.810Z,66.18
2022-08-09T05:57:57.446Z,66.44
2022-08-09T06:00:29.563Z,66.87
2022-08-09T06:02:59.641Z,66.25
2022-08-09T06:05:50.637Z,66.28
2022-08-09T06:08:19.695Z,64.71
2022-08-09T06:10:57.028Z,64.65
2022-08-09T06:13:28.363Z,64.03
2022-08-09T06:16:05.317Z,64.25
2022-08-09T06:18:35.383Z,64.87
2022-08-09T06:21:05.700Z,64.15
2022-08-09T06:23:57.491Z,62.89
2022-08-09T06:26:22.779Z,64.67
2022-08-09T06:29:00.368Z,61.68
2022-08-09T06:31:39.431Z,59.59
2022-08-09T06:34:22.655Z,59.49
2022-08-09T06:36:59.574Z,59.82
2022-08-09T06:39:48.299Z,56.96
2022-08-09T06:42:30.632Z,57.37
2022-08-09T06:46:03.350Z,58.72
2022-08-09T06:48:00.496Z,57.64
2022-08-09T06:50:31.121Z,55.79
2022-08-09T06:53:00.991Z,54.90
2022-08-09T06:55:33.893Z,51.06
2022-08-09T06:58:04.475Z,52.57
2022-08-09T07:00:52.719Z,51.26
2022-08-09T07:03:27.796Z,49.80
2022-08-09T07:06:03.788Z,48.65
2022-08-09T07:08:37.053Z,48.69
2022-08-09T07:11:06.947Z,48.49
2022-08-09T07:13:45.248Z,47.89
2022-08-09T07:16:42.092Z,46.20
2022-08-09T07:19:15.727Z,46.18
2022-08-09T07:21:57.699Z,46.08
2022-08-09T07:24:40.043Z,47.84
2022-08-09T07:27:27.024Z,45.73
2022-08-09T07:30:01.347Z,46.84
2022-08-09T07:32:32.355Z,48.63
2022-08-09T07:35:10.073Z,44.44
2022-08-09T07:37:43.542Z,43.88
2022-08-09T07:40:17.468Z,42.96
2022-08-09T07:42:55.543Z,44.80
2022-08-09T07:45:40.344Z,40.38
2022-08-09T07:48:28.498Z,42.94
2022-08-09T07:51:09.041Z,40.61
2022-08-09T07:54:07.390Z,39.56
2022-08-09T07:56:45.170Z,40.71
2022-08-09T07:59:25.667Z,41.35
2022-08-09T08:02:09.335Z,39.04
2022-08-09T08:04:40.047Z,39.51
2022-08-09T08:07:15.448Z,39.69
2022-08-09T08:10:08.560Z,37.17
2022-08-09T08:12:45.133Z,37.60
2022-08-09T08:15:24.020Z,36.90
2022-08-09T08:17:58.598Z,37.82
2022-08-09T08:20:32.280Z,35.32
2022-08-09T08:23:16.853Z,34.53
2022-08-09T08:25:53.964Z,35.18
2022-08-09T08:28:35.871Z,34.91
2022-08-09T08:31:13.789Z,34.29
2022-08-09T08:33:52.605Z,34.79
2022-08-09T08:36:29.725Z,34.53
2022-08-09T08:39:00.188Z,33.48
2022-08-09T08:41:41.799Z,33.33
2022-08-09T08:44:27.353Z,33.36
2022-08-09T08:47:04.886Z,34.51
2022-08-09T08:49:48.358Z,34.54
2022-08-09T08:52:53.033Z,33.21
2022-08-09T08:55:07.521Z,32.84
2022-08-09T08:57:37.628Z,32.26
2022-08-09T09:00:17.049Z,33.30
2022-08-09T09:03:08.823Z,29.76
2022-08-09T09:05:59.987Z,29.77
2022-08-09T09:08:40.402Z,28.18
2022-08-09T09:11:13.660Z,30.75
2022-08-09T09:13:57.274Z,28.88
2022-08-09T09:16:32.208Z,26.97
2022-08-09T09:21:58.284Z,25.86
2022-08-09T09:24:33.031Z,25.51
2022-08-09T09:27:03.353Z,26.82
2022-08-09T09:30:12.133Z,30.70
2022-08-09T09:32:34.918Z,26.84
2022-08-09T09:35:10.578Z,26.50
2022-08-09T09:37:41.650Z,27.76
2022-08-09T09:40:11.526Z,28.07
2022-08-09T09:42:39.649Z,30.08
2022-08-09T09:45:25.539Z,28.20
2022-08-09T09:47:56.684Z,28.84
2022-08-09T09:50:49.637Z,28.76
2022-08-09T09:53:57.500Z,27.40
2022-08-09T09:56:30.921Z,26.25
2022-08-09T09:59:00.116Z,24.43
2022-08-09T10:01:37.359Z,24.57
2022-08-09T10:04:23.111Z,24.41
2022-08-09T10:06:58.794Z,24.59
2022-08-09T10:09:54.860Z,23.91
2022-08-09T10:12:28.335Z,25.96
2022-08-09T10:15:50.670Z,26.54
2022-08-09T10:18:12.036Z,26.88
2022-08-09T10:20:45.082Z,24.33
2022-08-09T10:23:17.244Z,23.92
2022-08-09T10:26:08.020Z,25.33
2022-08-09T10:28:38.838Z,25.39
2022-08-09T10:34:08.337Z,25.19
2022-08-09T10:36:40.230Z,25.39
2022-08-09T10:39:15.523Z,25.09
2022-08-09T10:41:48.328Z,26.45
2022-08-09T10:44:21.696Z,25.89
2022-08-09T10:48:17.314Z,26.66
2022-08-09T10:50:57.071Z,26.48
2022-08-09T10:54:04.974Z,27.06
2022-08-09T10:56:35.773Z,25.15
2022-08-09T10:59:31.313Z,25.27
2022-08-09T11:03:10.824Z,24.44
2022-08-09T11:05:25.105Z,25.82
2022-08-09T11:08:43.579Z,25.88
2022-08-09T11:11:17.862Z,26.32
2022-08-09T11:13:49.787Z,25.34
2022-08-09T11:16:38.166Z,23.48
2022-08-09T11:19:10.525Z,23.64
2022-08-09T11:22:10.827Z,24.05
2022-08-09T11:25:04.713Z,25.72
2022-08-09T11:28:02.855Z,23.59
2022-08-09T11:30:32.975Z,25.90
2022-08-09T11:33:07.903Z,26.24
2022-08-09T11:35:49.683Z,25.84
2022-08-09T11:38:22.067Z,26.49
2022-08-09T11:40:56.575Z,26.67
2022-08-09T11:43:32.238Z,27.58
2022-08-09T11:46:05.829Z,27.02
2022-08-09T11:48:49.070Z,26.75
2022-08-09T11:52:56.979Z,26.68
2022-08-09T11:54:27.951Z,28.03
2022-08-09T11:58:00.823Z,29.05
2022-08-09T12:00:31.031Z,26.97
2022-08-09T12:03:50.271Z,26.79
2022-08-09T12:05:52.256Z,27.65
2022-08-09T12:08:22.663Z,26.28
2022-08-09T12:10:53.773Z,25.89
2022-08-09T12:14:08.035Z,25.94
2022-08-09T12:16:38.247Z,27.83
2022-08-09T12:19:09.480Z,26.17
2022-08-09T12:21:48.484Z,26.94
2022-08-09T12:24:24.363Z,25.99
2022-08-09T12:29:10.493Z,26.55
2022-08-09T12:29:58.615Z,27.41
2022-08-09T12:32:32.882Z,26.82
2022-08-09T12:35:05.624Z,27.36
2022-08-09T12:37:50.426Z,27.39
2022-08-09T12:40:23.350Z,26.49
2022-08-09T12:42:53.976Z,25.37
2022-08-09T12:45:34.649Z,25.82
2022-08-09T12:48:20.401Z,24.15
2022-08-09T12:50:59.362Z,23.62
2022-08-09T12:53:37.211Z,24.50
2022-08-09T12:56:44.282Z,24.31
2022-08-09T12:59:12.153Z,24.20
2022-08-09T13:01:48.823Z,24.41
2022-08-09T13:04:36.319Z,24.77
2022-08-09T13:07:19.383Z,23.95
2022-08-09T13:09:55.345Z,24.35
2022-08-09T13:12:24.222Z,22.72
2022-08-09T13:14:55.075Z,24.28
2022-08-09T13:17:44.374Z,23.83
2022-08-09T13:20:18.902Z,23.50
2022-08-09T13:23:01.762Z,21.91
2022-08-09T13:25:43.569Z,22.25
2022-08-09T13:28:33.807Z,23.25
2022-08-09T13:32:15.468Z,23.21
2022-08-09T13:33:59.140Z,22.42
2022-08-09T13:36:40.888Z,22.74
2022-08-09T13:41:19.119Z,22.56
2022-08-09T13:42:12.080Z,23.39
2022-08-09T13:44:42.797Z,23.52
2022-08-09T13:47:33.377Z,22.63
2022-08-09T13:50:08.676Z,23.50
2022-08-09T13:52:48.281Z,23.28
2022-08-09T13:55:17.554Z,23.05
2022-08-09T13:57:56.033Z,23.63
2022-08-09T14:00:28.319Z,22.73
2022-08-09T14:03:03.864Z,23.46
2022-08-09T14:06:00.033Z,23.65
2022-08-09T14:08:31.740Z,24.29
2022-08-09T14:11:01.435Z,23.22
2022-08-09T14:14:22.045Z,23.23
2022-08-09T14:16:28.219Z,23.60
2022-08-09T14:18:58.419Z,22.87
2022-08-09T14:21:29.575Z,23.89
2022-08-09T14:24:01.256Z,23.72
2022-08-09T14:26:39.162Z,23.96
2022-08-09T14:30:03.891Z,22.91
2022-08-09T14:31:57.480Z,23.25
2022-08-09T14:34:27.191Z,23.77
2022-08-09T14:37:06.758Z,22.87
2022-08-09T14:39:47.173Z,22.48
2022-08-09T14:42:28.746Z,22.70
2022-08-09T14:46:40.279Z,22.44
2022-08-09T14:47:59.379Z,22.55
2022-08-09T14:50:34.212Z,24.20
2022-08-09T14:53:13.006Z,23.24
2022-08-09T14:55:50.274Z,24.47
2022-08-09T14:58:19.192Z,24.33
2022-08-09T15:00:48.527Z,24.39
2022-08-09T15:03:22.951Z,22.65
2022-08-09T15:05:59.742Z,21.14
2022-08-09T15:08:32.316Z,21.35
2022-08-09T15:11:01.238Z,21.90
2022-08-09T15:13:56.663Z,22.32
2022-08-09T15:16:20.258Z,20.27
2022-08-09T15:18:49.320Z,20.10
2022-08-09T15:21:55.920Z,19.91
2022-08-09T15:24:12.996Z,21.24
2022-08-09T15:26:45.869Z,20.08
2022-08-09T15:30:58.947Z,18.79
2022-08-09T15:32:01.910Z,18.31
2022-08-09T15:34:34.277Z,17.21
2022-08-09T15:37:04.104Z,17.37
2022-08-09T15:39:48.751Z,17.82
2022-08-09T15:42:19.818Z,17.94
2022-08-09T15:44:50.197Z,18.46
2022-08-09T15:47:22.626Z,17.53
2022-08-09T15:50:04.632Z,18.13
2022-08-09T15:52:34.536Z,19.18
2022-08-09T15:55:03.280Z,19.73
2022-08-09T15:57:34.492Z,19.66
2022-08-09T16:00:13.798Z,19.78
2022-08-09T16:02:53.533Z,21.07
2022-08-09T16:05:23.177Z,19.02
2022-08-09T16:07:51.157Z,18.62
2022-08-09T16:10:55.157Z,18.88
2022-08-09T16:13:21.154Z,18.50
2022-08-09T16:16:11.343Z,19.35
2022-08-09T16:18:44.683Z,19.40
2022-08-09T16:21:17.597Z,20.23
2022-08-09T16:23:58.597Z,20.76
2022-08-09T16:26:34.023Z,20.54
2022-08-09T16:29:11.098Z,20.30
2022-08-09T16:32:17.965Z,21.54
2022-08-09T16:34:55.197Z,21.80
2022-08-09T16:37:54.917Z,21.27
2022-08-09T16:40:13.628Z,23.85
2022-08-09T16:42:45.422Z,24.82
2022-08-09T16:45:17.638Z,25.95
2022-08-09T16:48:41.088Z,25.27
2022-08-09T16:50:34.700Z,24.80
2022-08-09T16:53:03.335Z,25.55
2022-08-09T16:55:57.861Z,26.90
2022-08-09T16:58:21.500Z,27.58
2022-08-09T17:00:49.528Z,27.35
2022-08-09T17:03:22.178Z,27.19
2022-08-09T17:06:07.687Z,25.92
2022-08-09T17:09:01.659Z,26.69
2022-08-09T17:11:40.742Z,26.29
2022-08-09T17:14:26.738Z,28.50
2022-08-09T17:17:00.160Z,26.84
2022-08-09T17:20:05.074Z,27.37
2022-08-09T17:22:29.010Z,28.60
2022-08-09T17:25:03.495Z,30.87
2022-08-09T17:27:37.539Z,32.25
2022-08-09T17:30:07.166Z,32.59
2022-08-09T17:32:44.408Z,33.13
2022-08-09T17:35:14.508Z,34.71
2022-08-09T17:38:02.116Z,34.47
2022-08-09T17:40:32.030Z,34.69
2022-08-09T17:43:10.880Z,33.98
2022-08-09T17:46:02.696Z,35.45
2022-08-09T17:48:32.733Z,34.77
2022-08-09T17:51:10.305Z,36.52
2022-08-09T17:53:51.780Z,36.24
2022-08-09T17:56:21.828Z,37.41
2022-08-09T17:59:03.375Z,37.69
2022-08-09T18:01:58.055Z,37.63
2022-08-09T18:04:25.037Z,36.97
2022-08-09T18:06:55.667Z,36.78
2022-08-09T18:09:40.792Z,38.64
2022-08-09T18:12:17.521Z,38.47
2022-08-09T18:14:55.185Z,38.53
2022-08-09T18:18:03.924Z,39.09
2022-08-09T18:20:55.323Z,39.71
2022-08-09T18:23:04.823Z,40.41
2022-08-09T18:25:52.597Z,39.07
2022-08-09T18:30:35.698Z,40.29
2022-08-09T18:31:11.030Z,38.76
2022-08-09T18:33:40.007Z,39.58
2022-08-09T18:36:08.764Z,40.40
2022-08-09T18:38:43.126Z,39.96
2022-08-09T18:41:10.444Z,40.58
2022-08-09T18:43:53.163Z,41.10
2022-08-09T18:46:47.907Z,40.08
2022-08-09T18:49:09.207Z,39.94
2022-08-09T18:51:38.416Z,40.59
2022-08-09T18:54:28.280Z,42.73
2022-08-09T18:56:57.145Z,42.97
2022-08-09T18:59:48.447Z,42.77
2022-08-09T19:02:18.508Z,43.31
2022-08-09T19:04:47.791Z,43.35
2022-08-09T19:07:31.413Z,42.77
2022-08-09T19:10:16.602Z,43.29
2022-08-09T19:12:59.531Z,44.31
2022-08-09T19:15:29.313Z,44.14
2022-08-09T19:17:58.541Z,44.19
2022-08-09T19:20:26.700Z,44.27
2022-08-09T19:23:02.858Z,44.97
2022-08-09T19:26:01.285Z,44.10
2022-08-09T19:28:28.507Z,45.57
2022-08-09T19:30:56.479Z,45.15
2022-08-09T19:33:24.770Z,47.33
2022-08-09T19:35:58.454Z,47.35
2022-08-09T19:38:27.725Z,47.28
2022-08-09T19:40:59.793Z,48.28
2022-08-09T19:44:02.088Z,46.92
2022-08-09T19:46:17.006Z,48.04
2022-08-09T19:50:09.150Z,48.10
2022-08-09T19:51:56.096Z,46.89
2022-08-09T19:54:25.350Z,48.46
2022-08-09T19:56:53.344Z,48.98
2022-08-09T19:59:58.443Z,49.32
2022-08-09T20:02:15.789Z,48.88
2022-08-09T20:04:59.020Z,48.04
2022-08-09T20:07:56.627Z,49.61
2022-08-09T20:10:17.660Z,49.10
2022-08-09T20:12:49.825Z,50.53
2022-08-09T20:16:36.455Z,51.45
2022-08-09T20:18:08.350Z,51.99
2022-08-09T20:20:37.678Z,50.70
2022-08-09T20:23:06.898Z,50.29
2022-08-09T20:25:52.462Z,50.72
2022-08-09T20:28:27.475Z,51.22
2022-08-09T20:31:05.032Z,50.84
2022-08-09T20:33:41.213Z,50.49
2022-08-09T20:36:12.805Z,50.79
2022-08-09T20:39:28.818Z,51.48
2022-08-09T20:41:35.199Z,52.38
2022-08-09T20:44:09.754Z,51.42
2022-08-09T20:46:44.104Z,53.38
2022-08-09T20:49:14.016Z,53.51
2022-08-09T20:51:44.504Z,53.12
2022-08-09T20:54:18.865Z,53.27
2022-08-09T20:56:49.881Z,53.72
2022-08-09T20:59:50.233Z,54.30
2022-08-09T21:02:10.988Z,54.30
2022-08-09T21:05:56.817Z,54.05
2022-08-09T21:07:38.449Z,54.36
2022-08-09T21:10:07.143Z,54.11
2022-08-09T21:12:36.750Z,56.45
2022-08-09T21:15:04.622Z,55.92
2022-08-09T21:18:20.691Z,55.55
2022-08-09T21:20:25.753Z,55.19
2022-08-09T21:22:54.867Z,55.00
2022-08-09T21:25:44.047Z,55.80
2022-08-09T21:28:33.526Z,55.48
2022-08-09T21:31:16.386Z,54.61
2022-08-09T21:33:52.576Z,55.15
2022-08-09T21:36:23.076Z,54.99
2022-08-09T21:38:57.675Z,54.28
2022-08-09T21:42:03.605Z,54.27
2022-08-09T21:44:33.715Z,54.65
2022-08-09T21:47:03.846Z,54.67
2022-08-09T21:49:40.218Z,53.98
2022-08-09T21:52:17.845Z,54.65
2022-08-09T21:54:57.157Z,55.45
2022-08-09T21:57:38.894Z,55.29
2022-08-09T22:00:26.739Z,56.35
2022-08-09T22:03:02.120Z,55.84
2022-08-09T22:05:35.471Z,56.36
2022-08-09T22:08:06.824Z,56.54
2022-08-09T22:11:00.992Z,57.02
2022-08-09T22:13:34.271Z,56.90
2022-08-09T22:16:03.993Z,57.37
2022-08-09T22:18:33.102Z,57.55
2022-08-09T22:21:01.882Z,57.69
2022-08-09T22:23:35.111Z,58.33
2022-08-09T22:26:12.199Z,58.53
2022-08-09T22:28:54.271Z,59.12
2022-08-09T22:31:21.883Z,58.74
2022-08-09T22:33:55.281Z,59.05
2022-08-09T22:36:23.346Z,59.47
2022-08-09T22:38:50.501Z,59.05
2022-08-09T22:41:17.681Z,58.91
2022-08-09T22:44:02.983Z,58.35
2022-08-09T22:48:11.357Z,58.92
2022-08-09T22:49:20.645Z,59.55
2022-08-09T22:51:56.962Z,59.53
2022-08-09T22:54:26.977Z,60.00
2022-08-09T22:56:56.606Z,58.92
2022-08-09T22:59:56.251Z,59.28
2022-08-09T23:02:15.712Z,59.29
2022-08-09T23:04:53.459Z,58.69
2022-08-09T23:08:27.672Z,60.02
2022-08-09T23:10:31.134Z,59.62
2022-08-09T23:12:58.952Z,60.58
2022-08-09T23:15:27.078Z,60.91
2022-08-09T23:17:56.310Z,59.20
2022-08-09T23:20:24.061Z,59.00
2022-08-09T23:22:51.432Z,58.56
2022-08-09T23:25:19.043Z,59.51
2022-08-09T23:28:14.142Z,59.11
2022-08-09T23:30:33.768Z,59.90
2022-08-09T23:33:01.192Z,61.04
2022-08-09T23:35:28.366Z,61.93
2022-08-09T23:37:55.948Z,62.06
2022-08-09T23:40:23.165Z,62.19
2022-08-09T23:42:50.401Z,61.66
2022-08-09T23:45:38.231Z,61.45
2022-08-09T23:48:08.794Z,62.38
2022-08-09T23:50:37.324Z,62.26
2022-08-09T23:53:04.951Z,63.01
2022-08-09T23:55:33.267Z,62.62
2022-08-09T23:58:10.634Z,62.78
